createdAt,value
2022-12-24T00:00:22.660Z,0.004
2022-12-24T00:05:22.067Z,0.008
2022-12-24T00:10:25.023Z,0.004
2022-12-24T00:15:22.596Z,0.016
2022-12-24T00:20:22.709Z,0.008
2022-12-24T00:25:22.618Z,0.007
2022-12-24T00:30:22.137Z,0.005
2022-12-24T00:35:22.136Z,0.004
2022-12-24T00:40:37.115Z,0.002
2022-12-24T00:45:22.151Z,0.004
2022-12-24T00:50:22.198Z,0.011
2022-12-24T00:55:22.187Z,0.005
2022-12-24T01:00:26.902Z,0
2022-12-24T01:05:22.176Z,0
2022-12-24T01:10:22.235Z,0
2022-12-24T01:15:22.709Z,0
2022-12-24T01:20:28.138Z,0
2022-12-24T01:25:22.231Z,0
2022-12-24T01:30:22.261Z,0
2022-12-24T01:35:25.160Z,0
2022-12-24T01:41:24.857Z,0
2022-12-24T01:45:22.260Z,0
2022-12-24T01:50:36.059Z,0
2022-12-24T01:55:22.268Z,0
2022-12-24T02:00:56.547Z,0
2022-12-24T02:05:22.286Z,0
2022-12-24T02:10:22.325Z,0
2022-12-24T02:15:22.334Z,0
2022-12-24T02:21:02.610Z,0
2022-12-24T02:25:22.330Z,0
2022-12-24T02:30:22.394Z,0
2022-12-24T02:35:22.469Z,0
2022-12-24T02:40:22.885Z,0
2022-12-24T02:45:22.372Z,0
2022-12-24T02:50:27.123Z,0
2022-12-24T02:55:22.380Z,0
2022-12-24T03:00:22.929Z,0
2022-12-24T03:05:22.407Z,0
2022-12-24T03:10:22.444Z,0
2022-12-24T03:15:22.920Z,0
2022-12-24T03:20:22.936Z,0
2022-12-24T03:25:22.458Z,0
2022-12-24T03:30:22.478Z,0
2022-12-24T03:35:22.456Z,0
2022-12-24T03:40:22.469Z,0
2022-12-24T03:45:23.108Z,0
2022-12-24T03:50:22.500Z,0
2022-12-24T03:55:22.497Z,0
2022-12-24T04:00:22.507Z,0
2022-12-24T04:05:22.524Z,0
2022-12-24T04:10:23.043Z,0
2022-12-24T04:15:22.644Z,0
2022-12-24T04:20:22.548Z,0
2022-12-24T04:25:22.553Z,0.003
2022-12-24T04:30:22.605Z,0.011
2022-12-24T04:35:22.565Z,0.012
2022-12-24T04:40:22.580Z,0.01
2022-12-24T04:45:23.084Z,0.008
2022-12-24T04:50:22.635Z,0.02
2022-12-24T04:55:23.126Z,0.019
2022-12-24T05:00:22.597Z,0.015
2022-12-24T05:05:22.926Z,0.017
2022-12-24T05:10:22.653Z,0.015
2022-12-24T05:15:22.628Z,0.018
2022-12-24T05:20:23.163Z,0.025
2022-12-24T05:25:22.659Z,0.019
2022-12-24T05:30:22.707Z,0.015
2022-12-24T05:35:23.016Z,0.023
2022-12-24T05:40:23.182Z,0.018
2022-12-24T05:45:22.694Z,0.015
2022-12-24T05:50:22.727Z,0.026
2022-12-24T05:55:23.215Z,0.032
2022-12-24T06:00:22.737Z,0.053
2022-12-24T06:05:22.732Z,0.089
2022-12-24T06:10:22.769Z,0.094
2022-12-24T06:15:24.184Z,0.095
2022-12-24T06:20:22.758Z,0.086
2022-12-24T06:25:22.764Z,0.081
2022-12-24T06:30:22.878Z,0.077
2022-12-24T06:35:23.293Z,0.09
2022-12-24T06:40:23.290Z,0.076
2022-12-24T06:45:23.430Z,0.071
2022-12-24T06:50:23.355Z,0.062
2022-12-24T06:55:23.329Z,0.056
2022-12-24T07:00:22.832Z,0.077
2022-12-24T07:05:22.840Z,0.099
2022-12-24T07:10:22.862Z,0.094
2022-12-24T07:15:22.861Z,0.094
2022-12-24T07:20:22.873Z,0.096
2022-12-24T07:25:22.884Z,0.113
2022-12-24T07:30:22.905Z,0.111
2022-12-24T07:35:22.920Z,0.095
2022-12-24T07:40:22.905Z,0.106
2022-12-24T07:45:23.413Z,0.085
2022-12-24T07:50:22.935Z,0.102
2022-12-24T07:55:23.428Z,0.093
2022-12-24T08:00:22.928Z,0.105
2022-12-24T08:05:22.974Z,0.105
2022-12-24T08:10:22.998Z,0.09
2022-12-24T08:15:22.971Z,0.109
2022-12-24T08:20:22.973Z,0.097
2022-12-24T08:25:23.007Z,0.101
2022-12-24T08:30:23.569Z,0.105
2022-12-24T08:35:23.544Z,0.099
2022-12-24T08:40:23.515Z,0.108
2022-12-24T08:46:18.472Z,0.096
2022-12-24T08:50:23.018Z,0.115
2022-12-24T08:55:23.039Z,0.101
2022-12-24T09:00:23.608Z,0.1
2022-12-24T09:05:23.092Z,0.103
2022-12-24T09:10:23.186Z,0.1
2022-12-24T09:15:23.568Z,0.089
2022-12-24T09:20:23.224Z,0.105
2022-12-24T09:25:23.626Z,0.104
2022-12-24T09:30:28.443Z,0.085
2022-12-24T09:35:23.615Z,0.09
2022-12-24T09:40:23.119Z,0.108
2022-12-24T09:45:23.665Z,0.068
2022-12-24T09:50:23.648Z,0.051
2022-12-24T09:55:23.143Z,0.086
2022-12-24T10:00:23.149Z,0.075
2022-12-24T10:05:23.194Z,0.055
2022-12-24T10:10:23.673Z,0.036
2022-12-24T10:15:23.696Z,0.055
2022-12-24T10:20:38.793Z,0.066
2022-12-24T10:25:23.193Z,0.045
2022-12-24T10:30:23.705Z,0.047
2022-12-24T10:35:44.846Z,0.089
2022-12-24T10:40:23.721Z,0.036
2022-12-24T10:45:24.254Z,0.024
2022-12-24T10:50:23.251Z,0.035
2022-12-24T10:55:29.803Z,0.045
2022-12-24T11:00:27.095Z,0.035
2022-12-24T11:05:23.773Z,0.039
2022-12-24T11:10:23.272Z,0.047
2022-12-24T11:15:23.814Z,0.07
2022-12-24T11:20:23.308Z,0.085
2022-12-24T11:25:23.332Z,0.08
2022-12-24T11:30:23.812Z,0.073
2022-12-24T11:35:23.851Z,0.043
2022-12-24T11:40:23.831Z,0.03
2022-12-24T11:45:23.848Z,0.06
2022-12-24T11:50:23.343Z,0.068
2022-12-24T11:55:24.022Z,0.103
2022-12-24T12:00:23.866Z,0.115
2022-12-24T12:05:23.374Z,0.089
2022-12-24T12:10:23.377Z,0.067
2022-12-24T12:15:23.414Z,0.055
2022-12-24T12:20:23.428Z,0.02
2022-12-24T12:25:23.403Z,0.028
2022-12-24T12:30:23.411Z,0.037
2022-12-24T12:35:23.468Z,0.089
2022-12-24T12:40:23.439Z,0.1
2022-12-24T12:45:23.458Z,0.102
2022-12-24T12:50:23.885Z,0.075
2022-12-24T12:55:24.822Z,0.032
2022-12-24T13:00:24.029Z,0.025
2022-12-24T13:05:23.496Z,0.064
2022-12-24T13:10:24.002Z,0.084
2022-12-24T13:15:24.043Z,0.087
2022-12-24T13:20:23.506Z,0.065
2022-12-24T13:25:24.020Z,0.071
2022-12-24T13:30:23.519Z,0.095
2022-12-24T13:35:23.612Z,0.075
2022-12-24T13:40:24.049Z,0.063
2022-12-24T13:45:23.566Z,0.034
2022-12-24T13:50:23.595Z,0.03
2022-12-24T13:55:23.597Z,0.031
2022-12-24T14:00:23.585Z,0.022
2022-12-24T14:05:23.588Z,0.031
2022-12-24T14:10:23.604Z,0.016
2022-12-24T14:15:24.136Z,0.009
2022-12-24T14:20:23.609Z,0.019
2022-12-24T14:25:23.651Z,0.019
2022-12-24T14:30:23.639Z,0.016
2022-12-24T14:35:23.848Z,0.006
2022-12-24T14:40:23.676Z,0.004
2022-12-24T14:45:23.688Z,0.016
2022-12-24T14:50:23.674Z,0.01
2022-12-24T14:55:23.693Z,0.016
2022-12-24T15:00:24.207Z,0.008
2022-12-24T15:05:23.714Z,0.013
2022-12-24T15:10:23.709Z,0.017
2022-12-24T15:15:23.759Z,0.037
2022-12-24T15:20:23.802Z,0.023
2022-12-24T15:25:23.747Z,0.042
2022-12-24T15:30:24.445Z,0.036
2022-12-24T15:35:23.788Z,0.024
2022-12-24T15:40:23.762Z,0.047
2022-12-24T15:45:27.964Z,0.027
2022-12-24T15:50:29.751Z,0.034
2022-12-24T15:55:24.310Z,0.026
2022-12-24T16:00:23.808Z,0.015
2022-12-24T16:05:23.811Z,0.026
2022-12-24T16:10:41.840Z,0.033
2022-12-24T16:15:23.823Z,0.028
2022-12-24T16:20:23.847Z,0.04
2022-12-24T16:25:23.847Z,0.041
2022-12-24T16:30:29.207Z,0.024
2022-12-24T16:35:24.486Z,0.03
2022-12-24T16:40:27.551Z,0.026
2022-12-24T16:45:23.878Z,0.021
2022-12-24T16:50:23.918Z,0.022
2022-12-24T16:55:23.903Z,0.025
2022-12-24T17:00:24.422Z,0.017
2022-12-24T17:05:23.996Z,0.011
2022-12-24T17:10:24.490Z,0.025
2022-12-24T17:15:23.929Z,0.017
2022-12-24T17:20:24.639Z,0.01
2022-12-24T17:25:23.950Z,0.025
2022-12-24T17:30:29.940Z,0.018
2022-12-24T17:35:23.964Z,0.008
2022-12-24T17:40:24.508Z,0.008
2022-12-24T17:45:24.519Z,0.017
2022-12-24T17:50:30.076Z,0.007
2022-12-24T17:55:24.005Z,0.001
2022-12-24T18:00:28.084Z,0
2022-12-24T18:05:24.023Z,0.005
2022-12-24T18:10:24.572Z,0.016
2022-12-24T18:15:24.044Z,0.014
2022-12-24T18:20:24.085Z,0.017
2022-12-24T18:25:24.063Z,0.018
2022-12-24T18:30:27.842Z,0.023
2022-12-24T18:35:24.083Z,0.015
2022-12-24T18:40:24.080Z,0.014
2022-12-24T18:45:24.615Z,0.018
2022-12-24T18:50:24.695Z,0.017
2022-12-24T18:55:24.114Z,0.011
2022-12-24T19:00:24.635Z,0.015
2022-12-24T19:05:24.135Z,0.013
2022-12-24T19:10:24.188Z,0.005
2022-12-24T19:15:24.653Z,0.015
2022-12-24T19:20:24.165Z,0.007
2022-12-24T19:25:24.178Z,0.017
2022-12-24T19:30:24.213Z,0.016
2022-12-24T19:35:24.181Z,0.021
2022-12-24T19:40:24.312Z,0.012
2022-12-24T19:45:24.296Z,0.024
2022-12-24T19:50:24.239Z,0.011
2022-12-24T19:55:24.733Z,0.02
2022-12-24T20:00:24.226Z,0.005
2022-12-24T20:05:24.235Z,0.014
2022-12-24T20:10:24.280Z,0.013
2022-12-24T20:15:24.258Z,0.007
2022-12-24T20:20:24.775Z,0.025
2022-12-24T20:25:24.292Z,0.014
2022-12-24T20:31:19.119Z,0.013
2022-12-24T20:35:24.301Z,0.006
2022-12-24T20:40:24.318Z,0.008
2022-12-24T20:45:24.315Z,0.004
2022-12-24T20:50:24.353Z,0.006
2022-12-24T20:55:24.845Z,0.002
2022-12-24T21:00:24.388Z,0.012
2022-12-24T21:05:24.870Z,0.007
2022-12-24T21:10:27.825Z,0.011
2022-12-24T21:15:24.372Z,0.011
2022-12-24T21:20:24.377Z,0.008
2022-12-24T21:25:24.707Z,0.01
2022-12-24T21:30:24.960Z,0.005
2022-12-24T21:35:24.401Z,0.013
2022-12-24T21:40:24.417Z,0.006
2022-12-24T21:45:24.430Z,0.002
2022-12-24T21:50:30.053Z,0.007
2022-12-24T21:55:24.435Z,0.008
2022-12-24T22:00:24.451Z,0.004
2022-12-24T22:05:24.967Z,0.007
2022-12-24T22:10:24.500Z,0.009
2022-12-24T22:15:29.808Z,0.005
2022-12-24T22:20:24.982Z,0.002
2022-12-24T22:25:24.507Z,0.001
2022-12-24T22:30:24.567Z,0.002
2022-12-24T22:35:24.512Z,0.005
2022-12-24T22:40:24.518Z,0.005
2022-12-24T22:45:24.546Z,0.001
2022-12-24T22:50:24.561Z,0.005
2022-12-24T22:55:24.545Z,0.004
2022-12-24T23:00:25.057Z,0.001
2022-12-24T23:05:25.070Z,0.008
2022-12-24T23:10:24.643Z,0.004
2022-12-24T23:15:24.585Z,0.001
2022-12-24T23:20:24.600Z,0.005
2022-12-24T23:25:24.610Z,0.003
2022-12-24T23:30:24.643Z,0
2022-12-24T23:35:25.142Z,0
2022-12-24T23:40:24.640Z,0
2022-12-24T23:45:25.157Z,0
2022-12-24T23:50:25.201Z,0
2022-12-24T23:55:25.158Z,0
